Historyczne dane pomiarowe

Dodano dane terminowe – wersja testowa.

Dane z okresu 1951-2019

Wersja bazy: 1.34 [2019-03-16, lista zmian], aktualizacja planowana na 2019-04-15

Dane meteo z obszaru Polski uzyskane na podstawie danych udostępnionych przez Instytut Meteorologii i Gospodarki Wodnej – Państwowy Instytut Badawczy.

 

Wybierz Datę:    

       

TemperaturaWilgotnośćWiatrCiśnienieOpadyŚniegCzas trwania zjawisk
 Stacja t tx tn tng RH VA  wxwx mslp ppp RRR   cm mm wxwxwxwxwxwxwx
1999-08-14 12.0 17.5 7.4- 83.0- 4.3 1.3---- 0.0------------
1999-08-13 12.4 15.5 10.0- 87.0- 8.0 0.0---- 0.0------------
1999-08-12 13.0 16.8 11.4- 90.5- 8.0 0.7---- 0.3------------
1999-08-11 16.3 21.5 10.4- 82.0- 5.3 1.0---- 9.8------------
1999-08-10 18.8 26.9 12.7- 89.8- 7.3 1.0---- 24.3------------
1999-08-09 17.9 28.3 8.2- 73.5- 4.0 1.3---- 4.9------------
1999-08-08 18.5 25.5 12.7- 85.3- 5.0 1.0---- 0.0------------
1999-08-07 17.9 25.9 10.1- 87.3- 7.0 1.0---- 1.2------------
1999-08-06 17.2 25.0 11.8- 82.8- 6.3 1.0---- 11.4------------
1999-08-05 14.6 23.1 4.3- 83.3- 5.0 1.0---- 0.3------------
1999-08-04 12.7 19.9 4.7- 89.3- 3.3 1.3---- 0.0------------
1999-08-03 12.0 17.5 4.7- 88.3- 7.0 1.3---- 0.1------------
1999-08-02 11.4 17.3 4.4- 95.5- 7.3 1.3---- 0.2------------
1999-08-01 13.8 18.7 9.7- 84.0- 6.0 1.0---- 1.3------------
1999-07-31 12.8 19.9 4.8- 85.0- 6.0 1.7---- 3.6------------
1999-07-30 12.1 18.8 5.2- 92.0- 6.3 1.0---- 1.4------------
1999-07-29 13.3 18.5 7.2- 84.8- 5.0 1.7---- 0.0------------
1999-07-28 16.3 19.5 14.5- 92.3- 7.7 0.7---- 0.1------------
1999-07-27 16.6 19.0 15.1- 99.0- 8.0 0.0---- 22.5------------
1999-07-26 16.0 23.9 8.6- 96.5- 8.0 0.3---- 4.8------------
1999-07-25 14.9 21.9 6.4- 90.3- 7.7 1.0---- 0.0------------
1999-07-24 12.6 14.8 10.0- 98.0- 8.0 0.0---- 0.0------------
1999-07-23 12.3 15.9 10.3- 99.3- 8.0 0.0---- 28.8------------
1999-07-22 16.3 21.8 10.7- 85.5- 7.0 1.0---- 18.8------------
1999-07-21 19.0 25.9 10.0- 80.0- 6.3 2.0---- 3.0------------
1999-07-20 17.2 24.9 4.8- 67.0- 3.7 0.7---- 0.0------------
1999-07-19 15.7 23.9 4.7- 73.5- 4.3 0.3---- 0.0------------
1999-07-18 13.8 20.8 4.4- 71.5- 2.7 0.7---- 0.0------------
1999-07-17 13.3 19.9 6.7- 91.0- 5.7 0.3---- 0.0------------
1999-07-16 13.3 18.4 6.8- 88.5- 5.0 1.0---- 0.3------------
1999-07-15 14.6 17.9 12.8- 78.0- 7.0 0.7---- 0.0------------
1999-07-14 16.9 22.9 13.0- 95.3- 6.7 0.7---- 7.7------------
1999-07-13 17.6 22.8 13.2- 91.8- 6.0 0.3---- 8.8------------
1999-07-12 17.6 24.9 10.7- 93.5- 6.7 1.0---- 5.1------------
1999-07-11 17.8 19.5 16.1- 93.5- 8.0 1.0---- 3.8------------
1999-07-10 17.1 18.8 15.7- 94.0- 8.0 1.3---- 1.1------------
1999-07-09 17.0 21.4 12.8- 94.3- 8.0 0.7---- 23.2------------
1999-07-08 17.6 20.9 15.1- 95.3- 8.0 0.7---- 13.1------------
1999-07-07 19.6 25.6 14.1- 92.3- 6.3 1.0---- 21.4------------
1999-07-06 22.9 29.4 12.4- 53.5- 3.0 2.0---- 0.0------------
1999-07-05 20.3 29.4 8.2- 67.3- 1.7 0.3---- 0.0------------
1999-07-04 19.0 27.9 7.2- 80.5- 0.7 0.7---- 0.0------------
1999-07-03 16.4 22.7 7.7- 75.8- 5.7 0.7---- 0.0------------
1999-07-02 17.0 21.3 13.2- 90.8- 7.3 0.3---- 0.8------------
1999-07-01 16.8 23.1 8.7- 73.5- 5.0 0.3---- 4.3------------
1999-06-30 17.1 22.4 9.6- 79.5- 5.0 1.3---- 0.0------------
1999-06-29 16.3 22.4 9.4- 83.5- 6.3 1.0---- 0.0------------
1999-06-28 14.9 24.1 6.2- 81.0- 6.3 0.7---- 11.5------------
1999-06-27 14.8 24.9 2.7- 71.0- 3.3 1.0---- 0.0------------
1999-06-26 11.6 21.8 1.1- 83.5- 1.7 1.3---- 0.0------------
1999-06-25 10.6 17.0 1.0- 81.5- 5.0 1.0---- 0.0------------
1999-06-24 8.4 10.0 6.4- 97.3- 8.0 0.3---- 0.0------------
1999-06-23 6.7 7.7 5.7- 97.0- 8.0 0.7---- 12.6------------
1999-06-22 9.4 15.0 6.6- 93.8- 8.0 1.0---- 31.1------------
1999-06-21 16.2 20.3 12.4- 85.8- 6.3 1.0---- 36.5------------
1999-06-20 15.8 20.3 12.2- 91.8- 8.0 0.0---- 3.8------------
1999-06-19 14.7 18.8 12.2- 91.3- 8.0 1.0---- 0.8------------
1999-06-18 15.2 18.2 12.9- 94.5- 7.7 0.7---- 7.3------------
1999-06-17 15.1 19.1 12.7- 93.5- 8.0 0.3---- 27.8------------
1999-06-16 15.9 18.9 13.7- 96.0- 8.0 0.7---- 4.7------------
299.8 ms

 

Źródłem pochodzenia danych jest Instytut Meteorologii i Gospodarki Wodnej – Państwowy Instytut Badawczy. Dane Instytutu Meteorologii i Gospodarki Wodnej – Państwowego Instytutu Badawczego zostały przetworzone.

Dane źródłowe można odnaleźć na stronie https://dane.imgw.pl